Loyal, WI

6:32 AM CST on December 26, 2014 (GMT -0600)
Marshfield Municipal | Change Station
CLOSE
Current Station
Airport
Location: Marshfield,
Elevation: 1276 ft
Nearby Weather Stations
Active Advisory: Winter Weather Advisory

Elev 1276 ft 44.64 °N, 90.19 °W | Updated 38 minutes ago

Overcast
Overcast
27 °F
Feels Like 22 °F
N
5
Wind Variable Wind from East

Today
High -- | Low -- °F
--% Chance of Precip.
Yesterday
High -- | Low -- °F
Precip. -- in
7:38 AM 4:27 PM
Waxing Crescent, 25% visible
Pressure 29.93 in
Visibility 0.8 miles
Clouds
Windchill 22 °F
Dew Point 25 °F
Humidity 92%
Rainfall 0.00 in
Snow Depth Not available.
UV Not available.
Pollen .10 out of 12
Air Quality Not available.
Flu Activity Not available.
METAR KMFI 261154Z AUTO 09004KT 3/4SM BR VV001 M03/M04 A2987 RMK AO2 SLP133 I1000 I6000 T10281039 11017 21028 55000

More Conditions Fewer Conditions

Pressure 29.93 in
Visibility 0.8 miles
Clouds
Windchill 22 °F
Dew Point 25 °F
Humidity 92%
Rainfall 0.00 in
Snow Depth Not available.
UV Not available.
Pollen .10 out of 12
Air Quality Not available.
Flu Activity Not available.
METAR KMFI 261154Z AUTO 09004KT 3/4SM BR VV001 M03/M04 A2987 RMK AO2 SLP133 I1000 I6000 T10281039 11017 21028 55000

More Conditions Fewer Conditions

10-Day Weather Forecast

Almanac

Astronomy

Dec. 26, 2014 Rise Set
Actual Time
Civil Twilight
Nautical Twilight
Astronomical Twilight
Moon
Length of Visible Light
Length of Day
Tomorrow will be .
, % of the Moon is Illuminated

Today's Extremes

State Highs State Lows

Community

WunderPhotos

Upload Photos

1,780,586 photos uploaded!

WunderBlogs® & News

Nearby

Air Quality

  Air Quality AQ Index Pollutant
Not available.

Snow Depth

Station Depth Elevation

Earthquake Activity

City Distance Mag. Time & Date
Minimum magnitude displayed is 2.5.

Coastal Water Temperatures

Place Temperature

Nearby Weather Stations